Time;durP1;ratioP1;P1;durP2;ratioP2;P2;SDS_P1;SDS_P2;PMS_P1;PMS_P2;Temp;Humidity;BMP_temperature;BMP_pressure;BME280_temperature;BME280_humidity;BME280_pressure;Samples;Min_cycle;Max_cycle;Signal;HPM_P1;HPM_P2
2023/06/27 00:01:04;;;;;;;7.22;4.53;;;;;;;20.48;83.95;99119.06;5033706;28;20021;-77
2023/06/27 00:03:36;;;;;;;9.73;5.07;;;;;;;20.42;83.65;99123.56;5015876;28;20033;-76
2023/06/27 00:06:04;;;;;;;5.90;4.70;;;;;;;20.50;83.18;99119.47;5052223;28;20488;-77
2023/06/27 00:08:31;;;;;;;6.18;4.80;;;;;;;20.48;82.47;99121.91;5033921;28;20052;-76
2023/06/27 00:10:57;;;;;;;6.70;4.47;;;;;;;20.47;82.76;99117.47;5034178;28;20039;-76
2023/06/27 00:13:22;;;;;;;6.38;4.80;;;;;;;20.48;82.26;99119.91;5035486;28;20025;-76
2023/06/27 00:15:52;;;;;;;16.00;5.25;;;;;;;20.49;82.64;99120.69;5028546;28;20491;-77
2023/06/27 00:18:21;;;;;;;;;;;;;;;20.69;81.90;99114.53;5032417;28;20420;-77
2023/06/27 00:20:48;;;;;;;7.63;4.68;;;;;;;20.66;81.90;99115.38;5041453;28;19919;-76
2023/06/27 00:23:21;;;;;;;8.60;5.40;;;;;;;20.59;82.22;99124.72;5033502;28;20104;-77
2023/06/27 00:25:46;;;;;;;9.13;5.32;;;;;;;19.83;86.60;99122.06;5018172;28;20087;-77
2023/06/27 00:28:12;;;;;;;8.18;6.05;;;;;;;19.28;91.04;99115.53;5052305;28;20029;-77
2023/06/27 00:30:38;;;;;;;13.18;6.38;;;;;;;19.84;89.34;99118.00;5034302;28;20027;-77
2023/06/27 00:33:04;;;;;;;8.85;5.93;;;;;;;20.06;87.90;99105.41;5052939;28;20025;-77
2023/06/27 00:35:32;;;;;;;10.48;6.03;;;;;;;19.69;89.47;99106.66;5018686;28;20033;-76
2023/06/27 00:38:04;;;;;;;7.60;6.05;;;;;;;19.82;90.29;99111.91;5017986;28;20041;-77
2023/06/27 00:40:29;;;;;;;8.80;6.10;;;;;;;19.94;89.51;99105.84;5015173;28;20407;-77
2023/06/27 00:42:55;;;;;;;18.08;6.68;;;;;;;20.10;88.77;99107.44;5015102;28;20021;-77
2023/06/27 00:45:22;;;;;;;10.20;6.22;;;;;;;19.98;88.92;99115.16;5045122;28;20027;-77
2023/06/27 00:47:49;;;;;;;12.90;7.35;;;;;;;19.61;91.48;99122.06;5034783;28;20021;-77
2023/06/27 00:50:15;;;;;;;11.10;6.75;;;;;;;19.62;93.24;99115.97;5048104;28;20047;-76
2023/06/27 00:52:40;;;;;;;11.30;7.53;;;;;;;19.79;92.87;99113.53;5032621;28;20473;-77
2023/06/27 00:55:08;;;;;;;14.00;6.38;;;;;;;19.64;93.98;99112.72;5036391;28;20025;-76
2023/06/27 00:57:34;;;;;;;13.15;7.60;;;;;;;19.88;92.48;99115.94;5014381;28;20500;-76
2023/06/27 01:00:00;;;;;;;12.30;8.10;;;;;;;19.49;94.32;99123.28;5032500;28;20029;-77
2023/06/27 01:02:25;;;;;;;16.67;6.90;;;;;;;19.83;93.36;99122.84;5031257;28;20032;-76
2023/06/27 01:04:53;;;;;;;13.75;7.07;;;;;;;20.04;91.99;99124.88;5037029;28;20021;-76
2023/06/27 01:07:39;;;;;;;15.18;7.03;;;;;;;20.12;91.29;99125.69;5031729;28;20500;-76
2023/06/27 01:10:22;;;;;;;9.75;6.75;;;;;;;20.21;90.82;99133.78;5032324;28;20424;-76
2023/06/27 01:13:04;;;;;;;11.48;6.63;;;;;;;20.27;90.18;99132.16;5051268;28;20025;-76
2023/06/27 01:15:30;;;;;;;14.13;7.43;;;;;;;20.27;89.59;99123.63;5037724;28;20074;-76
2023/06/27 01:17:57;;;;;;;18.90;7.53;;;;;;;20.24;89.52;99120.78;5014374;28;20025;-76
2023/06/27 01:20:24;;;;;;;13.77;7.15;;;;;;;20.30;89.36;99125.63;5020954;28;20045;-76
2023/06/27 01:23:10;;;;;;;12.82;6.57;;;;;;;20.20;89.54;99118.75;5034170;28;20035;-76
2023/06/27 01:25:37;;;;;;;12.52;7.05;;;;;;;20.28;89.30;99128.09;4999155;28;20504;-76
2023/06/27 01:28:04;;;;;;;18.63;7.63;;;;;;;20.37;88.51;99143.84;5029030;28;20029;-76
2023/06/27 01:30:34;;;;;;;19.15;8.10;;;;;;;20.41;87.83;99141.84;5033881;28;20023;-76
2023/06/27 01:33:39;;;;;;;9.18;7.15;;;;;;;20.48;87.13;99136.94;5014729;28;20083;-76
2023/06/27 01:36:14;;;;;;;13.93;7.65;;;;;;;20.42;87.36;99129.25;5016926;28;20045;-77
2023/06/27 01:38:59;;;;;;;18.35;6.78;;;;;;;20.38;88.00;99131.28;5031866;28;20025;-76
2023/06/27 01:41:31;;;;;;;12.88;6.93;;;;;;;20.32;88.68;99128.03;5013518;28;20037;-76
2023/06/27 01:44:01;;;;;;;13.07;7.25;;;;;;;20.40;87.98;99134.53;5013645;28;20025;-76
2023/06/27 01:46:27;;;;;;;14.10;7.65;;;;;;;20.29;88.39;99128.88;5033496;28;20025;-76
2023/06/27 01:48:53;;;;;;;10.02;6.88;;;;;;;20.36;88.36;99133.72;5033676;28;20031;-76
2023/06/27 01:51:19;;;;;;;12.35;7.88;;;;;;;19.62;93.67;99127.34;5021320;28;20026;-76
2023/06/27 01:53:45;;;;;;;19.92;8.10;;;;;;;19.81;93.58;99124.50;5014742;28;20025;-76
2023/06/27 01:56:12;;;;;;;15.43;8.13;;;;;;;19.73;93.24;99133.00;5018877;28;20492;-76
2023/06/27 01:58:38;;;;;;;16.60;8.13;;;;;;;19.71;94.02;99126.91;5032650;28;20071;-76
2023/06/27 02:01:04;;;;;;;17.77;8.15;;;;;;;19.77;93.82;99115.97;5051318;28;20025;-76
2023/06/27 02:03:29;;;;;;;12.50;8.07;;;;;;;19.89;92.89;99117.56;5033534;28;20515;-76
2023/06/27 02:05:55;;;;;;;15.45;7.95;;;;;;;19.84;92.85;99126.50;5030915;28;20065;-76
2023/06/27 02:08:20;;;;;;;17.88;8.70;;;;;;;19.77;93.55;99128.13;5033471;28;20484;-76
2023/06/27 02:10:46;;;;;;;11.98;7.95;;;;;;;19.62;94.10;99124.50;5051134;28;20060;-76
2023/06/27 02:13:12;;;;;;;16.75;7.50;;;;;;;19.72;94.02;99124.88;5041069;28;20018;-76
2023/06/27 02:15:38;;;;;;;11.85;7.18;;;;;;;19.82;93.68;99124.06;5047393;28;20112;-76
2023/06/27 02:18:04;;;;;;;15.82;8.27;;;;;;;19.84;93.25;99118.78;5033280;28;20513;-76
2023/06/27 02:20:30;;;;;;;13.70;8.02;;;;;;;19.95;92.60;99115.97;5023298;28;20049;-76
2023/06/27 02:22:56;;;;;;;19.90;7.32;;;;;;;19.93;91.85;99115.59;5013336;28;20024;-76
2023/06/27 02:25:21;;;;;;;10.80;7.53;;;;;;;19.93;91.65;99118.41;5036429;28;20033;-76
2023/06/27 02:27:47;;;;;;;18.60;7.25;;;;;;;20.00;91.77;99128.94;5024372;28;20029;-76
2023/06/27 02:30:12;;;;;;;10.65;7.70;;;;;;;19.99;91.68;99121.66;5029552;28;20079;-79
2023/06/27 02:32:38;;;;;;;11.10;8.38;;;;;;;19.89;91.81;99124.06;5013370;28;20112;-80
2023/06/27 02:35:04;;;;;;;14.27;7.72;;;;;;;19.34;94.62;99130.97;5016081;28;20024;-77
2023/06/27 02:37:29;;;;;;;14.02;7.38;;;;;;;18.87;99.25;99130.81;5044615;28;20017;-79
2023/06/27 02:39:56;;;;;;;18.25;9.30;;;;;;;18.82;100.00;99131.22;5044673;28;20056;-78
2023/06/27 02:42:22;;;;;;;13.90;7.97;;;;;;;19.23;99.29;99133.75;5023625;28;20059;-78
2023/06/27 02:44:48;;;;;;;16.42;7.82;;;;;;;19.46;96.27;99124.88;5044241;28;20053;-79
2023/06/27 02:47:14;;;;;;;30.05;8.48;;;;;;;19.55;95.72;99135.00;5032250;28;20025;-77
2023/06/27 02:49:42;;;;;;;16.73;8.45;;;;;;;19.54;95.70;99134.22;5040525;28;20025;-78
2023/06/27 02:52:07;;;;;;;19.90;9.30;;;;;;;18.75;100.00;99129.16;5032122;28;20128;-77
2023/06/27 02:54:33;;;;;;;18.52;8.98;;;;;;;18.75;100.00;99137.66;5029145;28;20034;-77
2023/06/27 02:56:58;;;;;;;19.70;8.75;;;;;;;18.61;100.00;99135.56;5016617;28;20087;-77
2023/06/27 02:59:24;;;;;;;18.45;8.85;;;;;;;18.18;100.00;99139.00;5034890;28;20025;-77
2023/06/27 03:01:49;;;;;;;15.05;8.73;;;;;;;17.89;100.00;99144.44;5034761;28;20465;-77
2023/06/27 03:04:22;;;;;;;18.95;10.50;;;;;;;17.88;100.00;99137.19;5019211;28;20025;-77
2023/06/27 03:06:48;;;;;;;17.70;9.68;;;;;;;17.72;100.00;99140.28;5034608;28;20022;-77
2023/06/27 03:09:14;;;;;;;16.02;9.32;;;;;;;18.08;100.00;99147.03;5016477;28;20036;-77
2023/06/27 03:11:40;;;;;;;19.33;10.60;;;;;;;18.28;100.00;99148.75;5034393;28;20108;-77
2023/06/27 03:14:05;;;;;;;19.55;8.98;;;;;;;18.33;100.00;99146.38;5016449;28;20519;-77
2023/06/27 03:16:31;;;;;;;19.05;8.48;;;;;;;18.56;100.00;99148.09;5034438;28;20026;-77
2023/06/27 03:18:56;;;;;;;20.85;9.88;;;;;;;18.57;100.00;99149.72;5033216;28;20420;-77
2023/06/27 03:21:22;;;;;;;12.20;8.85;;;;;;;18.49;100.00;99150.91;5016766;28;20021;-77
2023/06/27 03:23:47;;;;;;;16.15;7.95;;;;;;;18.63;100.00;99139.66;5016371;28;20555;-77
2023/06/27 03:26:13;;;;;;;16.48;9.68;;;;;;;18.50;100.00;99156.16;5052595;28;20459;-77
2023/06/27 03:28:40;;;;;;;18.80;9.70;;;;;;;18.33;100.00;99146.38;5036250;28;20025;-77
2023/06/27 03:31:05;;;;;;;18.05;9.00;;;;;;;18.29;100.00;99150.41;5036270;28;20075;-77
2023/06/27 03:33:31;;;;;;;11.65;8.57;;;;;;;18.19;100.00;99163.28;5052773;28;20447;-77
2023/06/27 03:35:56;;;;;;;27.30;12.20;;;;;;;17.67;100.00;99144.28;5034531;28;20025;-77
2023/06/27 03:38:22;;;;;;;16.65;8.75;;;;;;;17.80;100.00;99156.13;5046222;28;20459;-77
2023/06/27 03:40:47;;;;;;;12.82;9.23;;;;;;;17.79;100.00;99154.47;5053966;28;20078;-77
2023/06/27 03:43:13;;;;;;;23.67;9.77;;;;;;;18.01;100.00;99146.13;5035836;28;20021;-77
2023/06/27 03:45:40;;;;;;;23.27;9.63;;;;;;;18.17;100.00;99148.69;5039162;28;20108;-76
2023/06/27 03:48:06;;;;;;;23.30;10.02;;;;;;;18.35;100.00;99157.31;5053206;28;20028;-77
2023/06/27 03:50:32;;;;;;;18.42;9.30;;;;;;;18.38;100.00;99148.84;5032215;28;20097;-77
2023/06/27 03:53:00;;;;;;;18.02;7.97;;;;;;;18.40;100.00;99151.25;5056699;28;20025;-77
2023/06/27 03:55:25;;;;;;;24.85;8.10;;;;;;;18.50;100.00;99158.19;5043580;28;20064;-77
2023/06/27 03:57:51;;;;;;;16.58;8.18;;;;;;;18.65;100.00;99137.22;5041999;28;20068;-77
2023/06/27 04:00:16;;;;;;;16.08;8.95;;;;;;;18.67;100.00;99151.00;5034845;28;20031;-76
2023/06/27 04:02:42;;;;;;;14.93;9.02;;;;;;;18.77;100.00;99150.22;5037641;28;20036;-77
2023/06/27 04:05:08;;;;;;;16.98;8.45;;;;;;;18.99;100.00;99152.31;5044151;28;20024;-77
2023/06/27 04:07:33;;;;;;;18.60;8.30;;;;;;;19.03;100.00;99153.16;5043749;28;20021;-76
2023/06/27 04:09:59;;;;;;;17.15;7.70;;;;;;;19.06;100.00;99150.34;5047188;28;20099;-77
2023/06/27 04:12:24;;;;;;;14.73;8.43;;;;;;;19.07;100.00;99157.63;5047051;28;20079;-76
2023/06/27 04:14:50;;;;;;;12.60;7.40;;;;;;;19.08;100.00;99161.28;5021211;28;20451;-74
2023/06/27 04:17:15;;;;;;;14.73;8.80;;;;;;;19.09;100.00;99160.06;5026861;28;20041;-76
2023/06/27 04:19:41;;;;;;;19.02;9.32;;;;;;;19.04;100.00;99171.78;5026154;28;20063;-74
2023/06/27 04:22:06;;;;;;;12.85;9.00;;;;;;;18.81;100.00;99178.56;5039579;28;20021;-76
2023/06/27 04:24:32;;;;;;;19.42;9.93;;;;;;;18.87;100.00;99174.13;5050345;28;20075;-76
2023/06/27 04:26:57;;;;;;;13.90;9.70;;;;;;;18.84;100.00;99174.94;5029098;28;20033;-76
2023/06/27 04:29:23;;;;;;;24.33;10.25;;;;;;;18.89;100.00;99171.72;5048808;28;20032;-77
2023/06/27 04:31:48;;;;;;;12.75;8.93;;;;;;;18.87;100.00;99171.31;5050653;28;20486;-80
2023/06/27 04:34:13;;;;;;;18.10;9.45;;;;;;;19.08;100.00;99178.28;5029992;28;20415;-80
2023/06/27 04:36:40;;;;;;;20.40;8.57;;;;;;;19.21;100.00;99176.72;5021138;28;20404;-81
2023/06/27 04:39:07;;;;;;;16.13;8.85;;;;;;;19.32;100.00;99176.72;5023739;28;20029;-80
2023/06/27 04:41:32;;;;;;;16.60;8.52;;;;;;;19.45;99.94;99171.47;5027118;28;20035;-80
2023/06/27 04:43:59;;;;;;;11.55;8.60;;;;;;;19.67;99.14;99180.03;5032759;28;20020;-81
2023/06/27 04:46:28;;;;;;;11.75;8.13;;;;;;;19.59;98.28;99172.72;5019036;28;20051;-80
2023/06/27 04:48:56;;;;;;;16.55;8.98;;;;;;;19.86;97.78;99178.81;5028965;28;20111;-80
2023/06/27 04:51:24;;;;;;;10.35;8.10;;;;;;;19.91;95.63;99174.75;4998900;28;20091;-80
2023/06/27 04:53:49;;;;;;;12.18;7.40;;;;;;;19.94;95.82;99179.63;5016125;28;20112;-80
2023/06/27 04:56:15;;;;;;;11.80;8.98;;;;;;;20.22;94.61;99180.81;5037135;28;20109;-80
2023/06/27 04:58:40;;;;;;;16.67;8.85;;;;;;;20.42;93.54;99183.22;5014797;28;20484;-80
2023/06/27 05:01:06;;;;;;;20.95;15.73;;;;;;;20.67;91.33;99188.00;5031367;28;20116;-79
2023/06/27 05:03:31;;;;;;;98.15;88.45;;;;;;;20.68;92.47;99190.44;5014576;28;20025;-80
2023/06/27 05:05:57;;;;;;;29.30;20.50;;;;;;;20.82;90.29;99188.81;5014621;28;20053;-80
2023/06/27 05:08:22;;;;;;;13.73;8.52;;;;;;;21.01;87.83;99182.63;5032336;28;20029;-80
2023/06/27 05:10:48;;;;;;;10.82;8.27;;;;;;;21.16;86.85;99169.13;5014201;28;20079;-80
2023/06/27 05:13:14;;;;;;;11.25;6.78;;;;;;;21.49;85.30;99183.16;5016459;28;20677;-81
2023/06/27 05:15:40;;;;;;;7.88;6.85;;;;;;;21.72;82.94;99194.00;5014155;28;20043;-80
2023/06/27 05:18:08;;;;;;;22.20;9.68;;;;;;;21.88;82.04;99201.19;5032107;28;20104;-80
2023/06/27 05:20:34;;;;;;;18.40;8.60;;;;;;;21.76;83.39;99193.16;5014120;28;20056;-80
2023/06/27 05:23:01;;;;;;;15.27;8.00;;;;;;;21.82;82.99;99174.38;5032176;28;20105;-80
2023/06/27 05:25:27;;;;;;;13.02;7.40;;;;;;;21.98;81.95;99186.06;5016114;28;20108;-78
2023/06/27 05:27:52;;;;;;;14.23;8.10;;;;;;;21.98;81.57;99183.22;5042835;28;20588;-80
2023/06/27 05:30:18;;;;;;;19.38;8.75;;;;;;;22.23;80.59;99199.25;5019963;28;20033;-82
2023/06/27 05:32:43;;;;;;;15.40;8.32;;;;;;;22.26;79.89;99197.59;5026271;28;20555;-82
2023/06/27 05:35:09;;;;;;;13.30;7.70;;;;;;;22.32;78.82;99197.94;5028232;28;20032;-81
2023/06/27 05:37:34;;;;;;;11.75;7.05;;;;;;;22.35;76.97;99191.41;5031248;28;20558;-81
2023/06/27 05:40:00;;;;;;;18.65;7.45;;;;;;;22.41;76.55;99204.78;5031401;28;20480;-84
2023/06/27 05:42:25;;;;;;;12.30;7.50;;;;;;;22.11;77.06;99203.41;5031581;28;20098;-77
2023/06/27 05:44:50;;;;;;;9.90;7.55;;;;;;;22.41;78.26;99195.41;5024656;28;20566;-83
2023/06/27 05:47:16;;;;;;;9.75;6.38;;;;;;;22.61;75.41;99191.97;5041899;28;20667;-83
2023/06/27 05:49:41;;;;;;;17.77;8.35;;;;;;;22.91;74.60;99204.63;5026236;28;20051;-80
2023/06/27 05:52:07;;;;;;;12.93;6.95;;;;;;;22.99;74.25;99203.31;5011210;28;20508;-82
2023/06/27 05:54:33;;;;;;;9.68;6.25;;;;;;;23.17;73.20;99200.25;5010488;28;20501;-78
2023/06/27 05:56:58;;;;;;;7.97;5.70;;;;;;;23.28;70.99;99205.81;5015161;28;20041;-82
2023/06/27 05:59:24;;;;;;;7.78;6.50;;;;;;;23.55;71.60;99205.84;5031858;28;20035;-83
2023/06/27 06:01:49;;;;;;;22.05;8.07;;;;;;;23.51;71.36;99204.28;5020447;28;20036;-83
2023/06/27 06:04:15;;;;;;;8.88;6.70;;;;;;;23.46;69.41;99205.56;5031292;28;20037;-83
2023/06/27 06:06:40;;;;;;;22.92;6.90;;;;;;;23.42;68.84;99208.47;5013221;28;20484;-83
2023/06/27 06:09:06;;;;;;;12.15;6.25;;;;;;;23.96;68.79;99206.03;5013455;28;20030;-83
2023/06/27 06:11:34;;;;;;;11.18;6.13;;;;;;;24.24;66.59;99201.09;5022922;28;20091;-83
2023/06/27 06:14:01;;;;;;;9.13;7.13;;;;;;;24.04;67.21;99184.69;5018627;28;20037;-83
2023/06/27 06:16:27;;;;;;;7.25;5.80;;;;;;;24.44;65.37;99200.34;5016905;28;20107;-83
2023/06/27 06:18:53;;;;;;;8.15;6.25;;;;;;;24.71;66.38;99205.91;5030844;28;20131;-84
2023/06/27 06:21:19;;;;;;;7.50;5.63;;;;;;;24.83;64.95;99195.91;5024084;28;20057;-83
2023/06/27 06:23:44;;;;;;;16.23;6.35;;;;;;;24.95;65.06;99203.00;5013996;28;20029;-83
2023/06/27 06:26:10;;;;;;;12.77;6.07;;;;;;;24.97;64.28;99191.13;5033139;28;20028;-86
2023/06/27 06:28:35;;;;;;;12.18;6.38;;;;;;;24.73;64.31;99203.41;5044941;28;20040;-86
2023/06/27 06:31:00;;;;;;;10.60;6.80;;;;;;;24.63;64.33;99199.53;5027288;28;20101;-86
2023/06/27 06:33:27;;;;;;;6.53;5.68;;;;;;;24.34;63.82;99202.13;5013741;28;20116;-81
2023/06/27 06:35:53;;;;;;;9.02;6.80;;;;;;;24.58;64.40;99207.81;5038482;28;20037;-85
2023/06/27 06:38:19;;;;;;;8.88;5.93;;;;;;;24.76;63.57;99207.44;5030701;28;20052;-84
2023/06/27 06:40:44;;;;;;;11.05;7.00;;;;;;;24.77;64.12;99207.06;5015424;28;20496;-86
2023/06/27 06:43:10;;;;;;;11.55;6.10;;;;;;;24.89;62.75;99201.94;5022007;28;20025;-86
2023/06/27 06:45:35;;;;;;;8.40;6.90;;;;;;;24.61;62.77;99196.31;5031007;28;20087;-86
2023/06/27 06:48:01;;;;;;;18.55;8.70;;;;;;;24.52;62.45;99191.19;5017377;28;20060;-86
2023/06/27 06:50:26;;;;;;;11.20;6.35;;;;;;;24.81;61.65;99192.69;5023797;28;20091;-86
2023/06/27 06:52:52;;;;;;;10.95;6.45;;;;;;;24.79;62.91;99181.69;5024274;28;20412;-86
2023/06/27 06:55:18;;;;;;;12.82;6.97;;;;;;;25.06;62.23;99183.56;5033692;28;20032;-84
2023/06/27 06:57:44;;;;;;;6.45;4.93;;;;;;;25.12;58.63;99185.91;5013290;28;20029;-86
2023/06/27 07:00:10;;;;;;;6.85;5.93;;;;;;;25.43;58.71;99192.16;5013765;28;20026;-85
2023/06/27 07:02:35;;;;;;;12.60;5.40;;;;;;;25.31;58.75;99181.41;5026499;28;20515;-84
2023/06/27 07:05:01;;;;;;;11.75;7.57;;;;;;;25.55;60.21;99181.31;5021578;28;20075;-85
2023/06/27 07:07:27;;;;;;;11.45;7.35;;;;;;;25.88;58.49;99178.44;5027010;28;20025;-85
2023/06/27 07:09:53;;;;;;;10.52;6.65;;;;;;;25.91;58.16;99186.94;5022612;28;20033;-85
2023/06/27 07:12:18;;;;;;;8.88;6.57;;;;;;;25.90;58.04;99193.13;5040150;28;20021;-85
2023/06/27 07:14:44;;;;;;;9.27;6.72;;;;;;;25.55;57.22;99190.69;5013008;28;20037;-86
2023/06/27 07:17:09;;;;;;;19.58;7.13;;;;;;;25.48;57.96;99188.75;5020692;28;21662;-81
2023/06/27 07:19:34;;;;;;;11.55;6.57;;;;;;;25.76;57.92;99177.09;5012294;28;20053;-81
2023/06/27 07:22:00;;;;;;;7.78;5.95;;;;;;;25.80;57.30;99183.53;5011752;28;20021;-81
2023/06/27 07:24:25;;;;;;;9.60;6.07;;;;;;;25.93;56.47;99180.78;5013043;28;20232;-79
2023/06/27 07:26:51;;;;;;;14.00;5.70;;;;;;;26.10;55.27;99180.75;5028248;28;20028;-81
2023/06/27 07:29:17;;;;;;;11.73;5.72;;;;;;;25.71;55.23;99174.78;5019024;28;20073;-81
2023/06/27 07:31:43;;;;;;;8.82;5.70;;;;;;;25.50;55.71;99179.78;5014584;28;20515;-81
2023/06/27 07:34:08;;;;;;;8.75;6.82;;;;;;;25.88;55.95;99184.97;5013779;28;20032;-81
2023/06/27 07:36:34;;;;;;;8.48;6.00;;;;;;;26.12;56.60;99181.09;5013448;28;20026;-81
2023/06/27 07:39:00;;;;;;;9.05;6.53;;;;;;;26.19;55.43;99183.81;5049453;28;20032;-79
2023/06/27 07:41:26;;;;;;;6.57;5.60;;;;;;;25.88;55.38;99179.25;5041372;28;20029;-83
2023/06/27 07:43:51;;;;;;;9.32;5.70;;;;;;;26.31;54.25;99171.63;5024949;28;20029;-83
2023/06/27 07:46:16;;;;;;;9.48;6.43;;;;;;;26.47;55.11;99175.69;5033930;28;20500;-84
2023/06/27 07:48:42;;;;;;;10.60;6.25;;;;;;;27.13;53.79;99181.22;5043838;28;20504;-84
2023/06/27 07:51:07;;;;;;;9.23;6.18;;;;;;;27.43;52.16;99178.25;5041727;28;20099;-84
2023/06/27 07:53:33;;;;;;;14.82;6.28;;;;;;;27.44;53.17;99179.88;5027103;28;20064;-84
2023/06/27 07:55:58;;;;;;;6.85;6.15;;;;;;;27.67;51.99;99172.19;5022672;28;20031;-81
2023/06/27 07:58:24;;;;;;;7.35;6.07;;;;;;;27.47;52.49;99164.59;5040128;28;20021;-82
2023/06/27 08:00:49;;;;;;;7.10;6.15;;;;;;;27.82;51.62;99175.41;5027352;28;20408;-76
2023/06/27 08:03:15;;;;;;;19.80;6.80;;;;;;;27.82;51.97;99175.41;5053377;28;20510;-77
2023/06/27 08:05:40;;;;;;;8.55;6.40;;;;;;;28.34;50.17;99170.34;5033733;28;20025;-85
2023/06/27 08:08:06;;;;;;;8.63;5.65;;;;;;;28.70;48.77;99174.00;5016330;28;20120;-84
2023/06/27 08:10:31;;;;;;;7.25;6.47;;;;;;;28.43;49.55;99167.56;5035476;28;20021;-84
2023/06/27 08:12:57;;;;;;;10.25;6.45;;;;;;;28.15;50.22;99169.34;5032979;28;20026;-83
2023/06/27 08:15:22;;;;;;;8.02;5.70;;;;;;;28.50;49.19;99172.25;5018535;28;20094;-86
2023/06/27 08:17:48;;;;;;;11.20;7.00;;;;;;;28.65;48.68;99165.97;5035694;28;20021;-84
2023/06/27 08:20:13;;;;;;;6.68;5.95;;;;;;;28.99;46.80;99167.19;5042544;28;20128;-86
2023/06/27 08:22:39;;;;;;;7.95;5.30;;;;;;;29.13;46.31;99165.84;5017993;28;20095;-79
2023/06/27 08:25:06;;;;;;;8.32;5.57;;;;;;;29.12;46.96;99162.16;5034666;28;20121;-81
2023/06/27 08:27:31;;;;;;;7.28;5.55;;;;;;;29.38;46.87;99167.75;5035332;28;20079;-81
2023/06/27 08:29:57;;;;;;;7.00;5.35;;;;;;;29.59;44.78;99156.63;5033144;28;20017;-79
2023/06/27 08:32:22;;;;;;;6.15;4.53;;;;;;;29.18;44.38;99165.22;5031160;28;20025;-78
2023/06/27 08:34:48;;;;;;;6.03;5.43;;;;;;;29.63;43.48;99150.72;5042037;28;20562;-77
2023/06/27 08:37:13;;;;;;;5.97;5.22;;;;;;;29.83;43.64;99156.88;5032867;28;20022;-78
2023/06/27 08:39:40;;;;;;;8.23;5.40;;;;;;;29.90;43.24;99157.84;5032995;28;20109;-78
2023/06/27 08:42:06;;;;;;;6.20;5.13;;;;;;;29.80;43.52;99154.94;5032817;28;20159;-78
2023/06/27 08:44:31;;;;;;;6.50;4.90;;;;;;;30.05;43.05;99152.28;5021545;28;20124;-78
2023/06/27 08:47:03;;;;;;;6.03;5.05;;;;;;;30.32;41.59;99160.19;5020851;28;20017;-86
2023/06/27 08:49:33;;;;;;;8.93;5.47;;;;;;;30.45;41.06;99159.22;5038200;28;20036;-79
2023/06/27 08:52:01;;;;;;;11.50;5.00;;;;;;;30.66;41.75;99155.41;5041699;28;20021;-73
2023/06/27 08:54:39;;;;;;;11.23;5.25;;;;;;;30.77;41.08;99151.19;5021775;28;20033;-77
2023/06/27 08:57:06;;;;;;;4.97;4.47;;;;;;;30.89;43.08;99156.00;5029985;28;20025;-80
2023/06/27 08:59:35;;;;;;;8.18;5.57;;;;;;;31.13;42.38;99154.50;5011994;28;20060;-77
2023/06/27 09:02:03;;;;;;;;;;;;;;;31.13;40.31;99151.63;5013559;28;20029;-73
2023/06/27 09:04:32;;;;;;;6.82;5.32;;;;;;;31.07;42.33;99145.69;5023231;28;19995;-78
2023/06/27 09:06:59;;;;;;;5.10;4.30;;;;;;;31.46;40.33;99145.13;5024310;28;20039;-78
2023/06/27 09:09:25;;;;;;;11.60;5.00;;;;;;;30.02;40.91;99144.59;5019219;28;20035;-78
2023/06/27 09:11:51;;;;;;;7.63;4.97;;;;;;;30.36;43.66;99148.50;5036364;28;20053;-79
2023/06/27 09:14:17;;;;;;;6.82;5.15;;;;;;;30.72;40.15;99151.84;5014375;28;20037;-78
2023/06/27 09:16:43;;;;;;;7.05;5.70;;;;;;;29.54;42.39;99143.66;5042853;28;20036;-77
2023/06/27 09:19:09;;;;;;;5.80;5.20;;;;;;;30.42;42.44;99148.66;5028229;28;20141;-77
2023/06/27 09:21:35;;;;;;;6.60;4.65;;;;;;;30.59;41.79;99132.59;5048712;28;20540;-76
2023/06/27 09:24:07;;;;;;;5.93;5.32;;;;;;;31.03;41.55;99142.97;5033127;28;20040;-78
2023/06/27 09:26:33;;;;;;;8.45;4.35;;;;;;;31.02;39.64;99126.94;5011304;28;20163;-76
2023/06/27 09:28:59;;;;;;;11.63;4.80;;;;;;;31.15;38.10;99131.72;5041872;28;20112;-78
2023/06/27 09:31:26;;;;;;;6.88;4.50;;;;;;;30.35;38.70;99124.59;5048533;28;20032;-74
2023/06/27 09:34:04;;;;;;;7.30;5.05;;;;;;;29.91;39.13;99131.44;5047099;28;20025;-75
2023/06/27 09:36:34;;;;;;;5.05;4.28;;;;;;;30.74;38.84;99132.78;5030387;28;20033;-81
2023/06/27 09:39:04;;;;;;;7.53;4.88;;;;;;;31.19;37.52;99124.47;5033545;28;20016;-74
2023/06/27 09:42:01;;;;;;;6.15;4.22;;;;;;;31.65;36.09;99134.25;5020601;28;20518;-77
2023/06/27 09:44:27;;;;;;;8.77;4.65;;;;;;;32.07;37.25;99130.47;4998918;28;20492;-77
2023/06/27 09:46:53;;;;;;;7.00;5.05;;;;;;;31.85;35.39;99135.78;5031769;28;20061;-79
2023/06/27 09:49:20;;;;;;;9.68;4.93;;;;;;;31.74;36.99;99133.41;5029869;28;20064;-79
2023/06/27 09:51:50;;;;;;;8.32;4.93;;;;;;;31.77;35.75;99117.97;5051295;28;20550;-79
2023/06/27 09:54:22;;;;;;;7.13;4.15;;;;;;;31.48;37.77;99130.97;5042808;28;20486;-79
2023/06/27 09:56:52;;;;;;;4.75;4.05;;;;;;;31.70;36.24;99135.69;5047398;28;20024;-79
2023/06/27 09:59:19;;;;;;;;;;;;;;;31.79;37.52;99130.66;5032810;28;20021;-79
2023/06/27 10:01:45;;;;;;;4.80;4.07;;;;;;;30.79;34.45;99132.13;5050612;28;19909;-79
2023/06/27 10:04:10;;;;;;;4.50;3.85;;;;;;;30.81;34.32;99126.66;5024622;28;20024;-79
2023/06/27 10:06:37;;;;;;;8.75;3.97;;;;;;;30.03;36.32;99131.78;5039046;28;20029;-79
2023/06/27 10:09:03;;;;;;;8.75;4.65;;;;;;;30.88;36.88;99125.53;5035344;28;20021;-79
2023/06/27 10:11:28;;;;;;;9.27;4.78;;;;;;;31.55;35.16;99121.16;5018484;28;20110;-80
2023/06/27 10:13:54;;;;;;;4.28;3.47;;;;;;;32.11;34.46;99132.41;5020700;28;20048;-79
2023/06/27 10:16:21;;;;;;;3.85;3.45;;;;;;;32.11;35.03;99126.63;5022165;28;20100;-79
2023/06/27 10:18:50;;;;;;;6.90;4.53;;;;;;;32.20;35.40;99123.63;5043456;28;20037;-79
2023/06/27 10:21:17;;;;;;;3.50;3.20;;;;;;;32.29;33.66;99117.00;5013488;28;20072;-79
2023/06/27 10:23:46;;;;;;;6.00;3.60;;;;;;;31.27;34.54;99118.41;5016333;28;20025;-79
2023/06/27 10:26:12;;;;;;;6.47;4.20;;;;;;;31.08;34.78;99112.66;5029512;28;20023;-77
2023/06/27 10:28:37;;;;;;;5.25;3.78;;;;;;;30.99;34.70;99104.00;5030781;28;20115;-79
2023/06/27 10:31:04;;;;;;;3.83;3.22;;;;;;;31.40;33.18;99107.41;5013441;28;20030;-79
2023/06/27 10:33:32;;;;;;;4.15;3.35;;;;;;;31.97;31.74;99105.81;5013791;28;20048;-79
2023/06/27 10:36:05;;;;;;;6.00;3.97;;;;;;;32.37;33.00;99106.66;5013356;28;20028;-80
2023/06/27 10:38:38;;;;;;;4.80;2.92;;;;;;;32.55;30.04;99102.00;5033082;28;20527;-79
2023/06/27 10:41:06;;;;;;;3.78;2.88;;;;;;;32.20;29.32;99103.38;5013338;28;20017;-79
2023/06/27 10:43:51;;;;;;;5.65;2.92;;;;;;;33.06;30.11;99102.91;5013120;28;20415;-79
2023/06/27 10:46:20;;;;;;;6.35;2.85;;;;;;;33.13;28.87;99095.94;5013625;28;20021;-79
2023/06/27 10:48:47;;;;;;;4.82;2.75;;;;;;;32.66;29.37;99092.72;5033785;28;20033;-78
2023/06/27 10:51:24;;;;;;;5.35;2.55;;;;;;;32.87;29.32;99091.53;5019264;28;20077;-79
2023/06/27 10:54:11;;;;;;;4.47;2.88;;;;;;;32.93;27.79;99090.84;5030596;28;20049;-79
2023/06/27 10:56:45;;;;;;;2.70;2.50;;;;;;;32.82;27.61;99088.53;5013426;28;20044;-79
2023/06/27 10:59:18;;;;;;;3.67;2.63;;;;;;;32.91;27.50;99083.47;5032322;28;20484;-79
2023/06/27 11:01:50;;;;;;;3.70;2.55;;;;;;;33.22;26.47;99080.53;5021268;28;20020;-79
2023/06/27 11:04:27;;;;;;;3.38;2.95;;;;;;;33.10;27.34;99091.13;5012947;28;20033;-79
2023/06/27 11:07:00;;;;;;;3.50;2.88;;;;;;;33.18;26.48;99080.75;5043953;28;20026;-79
2023/06/27 11:09:28;;;;;;;4.68;2.80;;;;;;;33.52;26.76;99080.47;5030402;28;20038;-79
2023/06/27 11:11:55;;;;;;;3.05;2.22;;;;;;;33.54;26.91;99080.78;5030700;28;20032;-79
2023/06/27 11:14:41;;;;;;;3.75;2.88;;;;;;;33.45;26.51;99073.81;5035027;28;20185;-79
2023/06/27 11:17:07;;;;;;;3.30;2.28;;;;;;;33.13;25.41;99075.69;5016589;28;20032;-79
2023/06/27 11:19:34;;;;;;;4.80;2.67;;;;;;;33.41;25.07;99073.19;5013280;28;20041;-79
2023/06/27 11:22:01;;;;;;;4.90;2.55;;;;;;;33.47;23.69;99074.09;5013301;28;20018;-79
2023/06/27 11:24:29;;;;;;;4.45;2.70;;;;;;;33.41;26.40;99078.19;5020016;28;20484;-79
2023/06/27 11:26:55;;;;;;;4.35;3.10;;;;;;;33.53;26.99;99065.50;5024375;28;20060;-79
2023/06/27 11:29:21;;;;;;;4.30;2.60;;;;;;;33.40;26.40;99068.69;5013207;28;20029;-79